sensor_id;sensor_type;location;lat;lon;timestamp;P1;durP1;ratioP1;P2;durP2;ratioP2
37955;SDS011;23776;51.592;7.180;2022-07-11T00:00:06;8.25;;;3.15;;
37955;SDS011;23776;51.592;7.180;2022-07-11T00:02:33;6.22;;;2.80;;
37955;SDS011;23776;51.592;7.180;2022-07-11T00:04:59;7.47;;;2.20;;
37955;SDS011;23776;51.592;7.180;2022-07-11T00:07:26;5.55;;;2.70;;
37955;SDS011;23776;51.592;7.180;2022-07-11T00:09:52;5.88;;;2.53;;
37955;SDS011;23776;51.592;7.180;2022-07-11T00:12:18;6.38;;;2.97;;
37955;SDS011;23776;51.592;7.180;2022-07-11T00:14:45;9.75;;;3.10;;
37955;SDS011;23776;51.592;7.180;2022-07-11T00:17:11;8.57;;;3.28;;
37955;SDS011;23776;51.592;7.180;2022-07-11T00:19:37;10.30;;;3.78;;
37955;SDS011;23776;51.592;7.180;2022-07-11T00:22:03;7.10;;;2.67;;
37955;SDS011;23776;51.592;7.180;2022-07-11T00:24:29;5.93;;;2.38;;
37955;SDS011;23776;51.592;7.180;2022-07-11T00:26:55;5.47;;;2.45;;
37955;SDS011;23776;51.592;7.180;2022-07-11T00:29:20;13.38;;;3.00;;
37955;SDS011;23776;51.592;7.180;2022-07-11T00:31:46;10.40;;;3.42;;
37955;SDS011;23776;51.592;7.180;2022-07-11T00:34:12;6.97;;;3.50;;
37955;SDS011;23776;51.592;7.180;2022-07-11T00:36:38;7.18;;;3.05;;
37955;SDS011;23776;51.592;7.180;2022-07-11T00:39:03;7.53;;;2.90;;
37955;SDS011;23776;51.592;7.180;2022-07-11T00:41:29;6.13;;;2.95;;
37955;SDS011;23776;51.592;7.180;2022-07-11T00:43:56;6.75;;;2.80;;
37955;SDS011;23776;51.592;7.180;2022-07-11T00:46:24;8.35;;;3.05;;
37955;SDS011;23776;51.592;7.180;2022-07-11T00:48:50;6.10;;;3.10;;
37955;SDS011;23776;51.592;7.180;2022-07-11T00:51:20;8.32;;;3.30;;
37955;SDS011;23776;51.592;7.180;2022-07-11T00:53:50;5.07;;;2.58;;
37955;SDS011;23776;51.592;7.180;2022-07-11T00:56:22;8.93;;;3.15;;
37955;SDS011;23776;51.592;7.180;2022-07-11T00:58:49;7.40;;;3.30;;
37955;SDS011;23776;51.592;7.180;2022-07-11T01:01:15;6.65;;;2.90;;
37955;SDS011;23776;51.592;7.180;2022-07-11T01:03:41;12.00;;;3.00;;
37955;SDS011;23776;51.592;7.180;2022-07-11T01:06:08;8.15;;;3.42;;
37955;SDS011;23776;51.592;7.180;2022-07-11T01:08:34;5.22;;;2.90;;
37955;SDS011;23776;51.592;7.180;2022-07-11T01:11:04;5.40;;;3.13;;
37955;SDS011;23776;51.592;7.180;2022-07-11T01:13:34;7.53;;;3.00;;
37955;SDS011;23776;51.592;7.180;2022-07-11T01:16:16;8.18;;;2.90;;
37955;SDS011;23776;51.592;7.180;2022-07-11T01:21:16;7.03;;;2.70;;
37955;SDS011;23776;51.592;7.180;2022-07-11T01:23:43;6.50;;;2.95;;
37955;SDS011;23776;51.592;7.180;2022-07-11T01:26:09;8.88;;;3.35;;
37955;SDS011;23776;51.592;7.180;2022-07-11T01:28:35;8.65;;;3.45;;
37955;SDS011;23776;51.592;7.180;2022-07-11T01:31:01;9.40;;;3.58;;
37955;SDS011;23776;51.592;7.180;2022-07-11T01:33:26;7.75;;;3.95;;
37955;SDS011;23776;51.592;7.180;2022-07-11T01:35:52;9.27;;;3.10;;
37955;SDS011;23776;51.592;7.180;2022-07-11T01:38:17;8.00;;;2.90;;
37955;SDS011;23776;51.592;7.180;2022-07-11T01:40:43;5.18;;;3.15;;
37955;SDS011;23776;51.592;7.180;2022-07-11T01:43:08;9.23;;;3.28;;
37955;SDS011;23776;51.592;7.180;2022-07-11T01:45:34;6.40;;;2.63;;
37955;SDS011;23776;51.592;7.180;2022-07-11T01:47:59;7.32;;;3.45;;
37955;SDS011;23776;51.592;7.180;2022-07-11T01:50:25;11.13;;;3.47;;
37955;SDS011;23776;51.592;7.180;2022-07-11T01:52:51;8.13;;;3.10;;
37955;SDS011;23776;51.592;7.180;2022-07-11T01:55:16;7.80;;;3.72;;
37955;SDS011;23776;51.592;7.180;2022-07-11T01:57:42;11.52;;;3.60;;
37955;SDS011;23776;51.592;7.180;2022-07-11T02:00:07;9.15;;;3.60;;
37955;SDS011;23776;51.592;7.180;2022-07-11T02:02:36;5.97;;;3.03;;
37955;SDS011;23776;51.592;7.180;2022-07-11T02:05:02;12.50;;;3.33;;
37955;SDS011;23776;51.592;7.180;2022-07-11T02:07:28;8.93;;;3.90;;
37955;SDS011;23776;51.592;7.180;2022-07-11T02:10:12;8.13;;;3.45;;
37955;SDS011;23776;51.592;7.180;2022-07-11T02:12:38;9.45;;;3.80;;
37955;SDS011;23776;51.592;7.180;2022-07-11T02:15:03;12.93;;;3.88;;
37955;SDS011;23776;51.592;7.180;2022-07-11T02:17:30;10.23;;;3.25;;
37955;SDS011;23776;51.592;7.180;2022-07-11T02:19:56;12.18;;;3.70;;
37955;SDS011;23776;51.592;7.180;2022-07-11T02:22:22;8.63;;;3.33;;
37955;SDS011;23776;51.592;7.180;2022-07-11T02:24:47;10.45;;;3.20;;
37955;SDS011;23776;51.592;7.180;2022-07-11T02:27:13;8.82;;;3.65;;
37955;SDS011;23776;51.592;7.180;2022-07-11T02:29:38;6.72;;;3.22;;
37955;SDS011;23776;51.592;7.180;2022-07-11T02:32:04;5.93;;;2.75;;
37955;SDS011;23776;51.592;7.180;2022-07-11T02:34:30;8.25;;;2.70;;
37955;SDS011;23776;51.592;7.180;2022-07-11T02:36:56;7.63;;;2.97;;
37955;SDS011;23776;51.592;7.180;2022-07-11T02:39:21;12.05;;;3.67;;
37955;SDS011;23776;51.592;7.180;2022-07-11T02:41:47;11.02;;;3.42;;
37955;SDS011;23776;51.592;7.180;2022-07-11T02:44:12;7.50;;;3.20;;
37955;SDS011;23776;51.592;7.180;2022-07-11T02:46:38;9.88;;;3.47;;
37955;SDS011;23776;51.592;7.180;2022-07-11T02:49:03;6.75;;;3.15;;
37955;SDS011;23776;51.592;7.180;2022-07-11T02:51:29;7.55;;;3.20;;
37955;SDS011;23776;51.592;7.180;2022-07-11T02:53:54;12.57;;;3.45;;
37955;SDS011;23776;51.592;7.180;2022-07-11T02:56:20;7.85;;;3.20;;
37955;SDS011;23776;51.592;7.180;2022-07-11T02:58:46;9.90;;;3.00;;
37955;SDS011;23776;51.592;7.180;2022-07-11T03:01:11;7.40;;;3.05;;
37955;SDS011;23776;51.592;7.180;2022-07-11T03:03:37;10.85;;;3.38;;
37955;SDS011;23776;51.592;7.180;2022-07-11T03:06:02;11.85;;;3.47;;
37955;SDS011;23776;51.592;7.180;2022-07-11T03:08:28;6.60;;;3.55;;
37955;SDS011;23776;51.592;7.180;2022-07-11T03:10:54;9.18;;;2.92;;
37955;SDS011;23776;51.592;7.180;2022-07-11T03:13:19;10.32;;;2.85;;
37955;SDS011;23776;51.592;7.180;2022-07-11T03:15:45;13.57;;;3.00;;
37955;SDS011;23776;51.592;7.180;2022-07-11T03:18:10;11.10;;;3.80;;
37955;SDS011;23776;51.592;7.180;2022-07-11T03:20:36;8.45;;;3.67;;
37955;SDS011;23776;51.592;7.180;2022-07-11T03:23:02;11.65;;;3.65;;
37955;SDS011;23776;51.592;7.180;2022-07-11T03:25:27;9.95;;;2.90;;
37955;SDS011;23776;51.592;7.180;2022-07-11T03:27:53;10.45;;;2.95;;
37955;SDS011;23776;51.592;7.180;2022-07-11T03:30:18;10.52;;;2.72;;
37955;SDS011;23776;51.592;7.180;2022-07-11T03:32:44;12.27;;;3.67;;
37955;SDS011;23776;51.592;7.180;2022-07-11T03:35:09;8.38;;;3.33;;
37955;SDS011;23776;51.592;7.180;2022-07-11T03:37:54;6.20;;;2.60;;
37955;SDS011;23776;51.592;7.180;2022-07-11T03:40:19;8.90;;;3.28;;
37955;SDS011;23776;51.592;7.180;2022-07-11T03:42:45;7.35;;;2.67;;
37955;SDS011;23776;51.592;7.180;2022-07-11T03:45:11;11.38;;;3.50;;
37955;SDS011;23776;51.592;7.180;2022-07-11T03:47:36;8.02;;;3.45;;
37955;SDS011;23776;51.592;7.180;2022-07-11T03:50:02;15.20;;;3.38;;
37955;SDS011;23776;51.592;7.180;2022-07-11T03:52:28;8.38;;;4.15;;
37955;SDS011;23776;51.592;7.180;2022-07-11T03:54:53;10.73;;;3.80;;
37955;SDS011;23776;51.592;7.180;2022-07-11T03:57:19;7.15;;;2.60;;
37955;SDS011;23776;51.592;7.180;2022-07-11T03:59:45;5.38;;;2.67;;
37955;SDS011;23776;51.592;7.180;2022-07-11T04:02:10;7.00;;;2.75;;
37955;SDS011;23776;51.592;7.180;2022-07-11T04:04:36;7.50;;;2.60;;
37955;SDS011;23776;51.592;7.180;2022-07-11T04:07:01;6.30;;;2.55;;
37955;SDS011;23776;51.592;7.180;2022-07-11T04:09:27;9.82;;;2.60;;
37955;SDS011;23776;51.592;7.180;2022-07-11T04:11:53;8.60;;;2.60;;
37955;SDS011;23776;51.592;7.180;2022-07-11T04:14:18;6.65;;;2.10;;
37955;SDS011;23776;51.592;7.180;2022-07-11T04:16:44;4.00;;;2.65;;
37955;SDS011;23776;51.592;7.180;2022-07-11T04:19:09;10.43;;;2.65;;
37955;SDS011;23776;51.592;7.180;2022-07-11T04:21:35;3.38;;;2.10;;
37955;SDS011;23776;51.592;7.180;2022-07-11T04:24:00;8.65;;;2.70;;
37955;SDS011;23776;51.592;7.180;2022-07-11T04:26:26;3.15;;;2.47;;
37955;SDS011;23776;51.592;7.180;2022-07-11T04:28:51;6.28;;;2.10;;
37955;SDS011;23776;51.592;7.180;2022-07-11T04:31:17;5.38;;;2.20;;
37955;SDS011;23776;51.592;7.180;2022-07-11T04:33:42;5.10;;;1.90;;
37955;SDS011;23776;51.592;7.180;2022-07-11T04:36:08;6.30;;;2.22;;
37955;SDS011;23776;51.592;7.180;2022-07-11T04:38:33;5.13;;;2.10;;
37955;SDS011;23776;51.592;7.180;2022-07-11T04:40:59;4.80;;;1.83;;
37955;SDS011;23776;51.592;7.180;2022-07-11T04:43:25;3.78;;;2.00;;
37955;SDS011;23776;51.592;7.180;2022-07-11T04:45:50;3.85;;;1.73;;
37955;SDS011;23776;51.592;7.180;2022-07-11T04:48:16;2.47;;;1.80;;
37955;SDS011;23776;51.592;7.180;2022-07-11T04:50:42;6.55;;;1.88;;
37955;SDS011;23776;51.592;7.180;2022-07-11T04:53:09;4.78;;;1.83;;
37955;SDS011;23776;51.592;7.180;2022-07-11T04:55:35;3.08;;;1.42;;
37955;SDS011;23776;51.592;7.180;2022-07-11T04:58:04;2.97;;;1.80;;
37955;SDS011;23776;51.592;7.180;2022-07-11T05:00:29;2.50;;;1.85;;
37955;SDS011;23776;51.592;7.180;2022-07-11T05:02:55;7.55;;;2.10;;
37955;SDS011;23776;51.592;7.180;2022-07-11T05:05:20;3.38;;;1.70;;
37955;SDS011;23776;51.592;7.180;2022-07-11T05:07:48;2.00;;;1.52;;
37955;SDS011;23776;51.592;7.180;2022-07-11T05:10:14;4.13;;;1.63;;
37955;SDS011;23776;51.592;7.180;2022-07-11T05:12:40;2.78;;;1.35;;
37955;SDS011;23776;51.592;7.180;2022-07-11T05:15:05;4.82;;;1.50;;
37955;SDS011;23776;51.592;7.180;2022-07-11T05:17:31;4.97;;;1.60;;
37955;SDS011;23776;51.592;7.180;2022-07-11T05:19:57;3.33;;;1.10;;
37955;SDS011;23776;51.592;7.180;2022-07-11T05:22:22;4.13;;;1.30;;
37955;SDS011;23776;51.592;7.180;2022-07-11T05:24:48;2.38;;;1.20;;
37955;SDS011;23776;51.592;7.180;2022-07-11T05:27:13;3.30;;;1.10;;
37955;SDS011;23776;51.592;7.180;2022-07-11T05:29:39;5.53;;;1.77;;
37955;SDS011;23776;51.592;7.180;2022-07-11T05:32:05;3.13;;;1.35;;
37955;SDS011;23776;51.592;7.180;2022-07-11T05:34:31;1.80;;;1.20;;
37955;SDS011;23776;51.592;7.180;2022-07-11T05:36:56;4.22;;;1.30;;
37955;SDS011;23776;51.592;7.180;2022-07-11T05:39:22;2.05;;;0.82;;
37955;SDS011;23776;51.592;7.180;2022-07-11T05:41:47;3.13;;;1.02;;
37955;SDS011;23776;51.592;7.180;2022-07-11T05:44:16;3.35;;;1.10;;
37955;SDS011;23776;51.592;7.180;2022-07-11T05:46:43;1.85;;;1.00;;
37955;SDS011;23776;51.592;7.180;2022-07-11T05:49:08;1.23;;;0.80;;
37955;SDS011;23776;51.592;7.180;2022-07-11T05:51:34;2.63;;;0.80;;
37955;SDS011;23776;51.592;7.180;2022-07-11T05:54:01;0.98;;;0.68;;
37955;SDS011;23776;51.592;7.180;2022-07-11T05:56:27;1.23;;;0.75;;
37955;SDS011;23776;51.592;7.180;2022-07-11T05:58:52;2.65;;;0.85;;
37955;SDS011;23776;51.592;7.180;2022-07-11T06:01:18;2.20;;;0.75;;
37955;SDS011;23776;51.592;7.180;2022-07-11T06:03:45;3.20;;;1.00;;
37955;SDS011;23776;51.592;7.180;2022-07-11T06:06:11;2.08;;;0.68;;
37955;SDS011;23776;51.592;7.180;2022-07-11T06:08:37;2.35;;;0.65;;
37955;SDS011;23776;51.592;7.180;2022-07-11T06:11:05;2.30;;;0.70;;
37955;SDS011;23776;51.592;7.180;2022-07-11T06:13:31;0.85;;;0.40;;
37955;SDS011;23776;51.592;7.180;2022-07-11T06:15:57;0.47;;;0.40;;
37955;SDS011;23776;51.592;7.180;2022-07-11T06:18:22;0.95;;;0.60;;
37955;SDS011;23776;51.592;7.180;2022-07-11T06:20:49;2.15;;;0.70;;
37955;SDS011;23776;51.592;7.180;2022-07-11T06:23:15;1.15;;;0.50;;
37955;SDS011;23776;51.592;7.180;2022-07-11T06:25:40;3.70;;;0.70;;
37955;SDS011;23776;51.592;7.180;2022-07-11T06:28:06;1.25;;;0.60;;
37955;SDS011;23776;51.592;7.180;2022-07-11T06:30:32;1.02;;;0.75;;
37955;SDS011;23776;51.592;7.180;2022-07-11T06:32:58;1.08;;;0.70;;
37955;SDS011;23776;51.592;7.180;2022-07-11T06:35:23;1.10;;;0.70;;
37955;SDS011;23776;51.592;7.180;2022-07-11T06:37:49;0.70;;;0.55;;
37955;SDS011;23776;51.592;7.180;2022-07-11T06:40:15;1.23;;;0.80;;
37955;SDS011;23776;51.592;7.180;2022-07-11T06:42:42;1.08;;;0.47;;
37955;SDS011;23776;51.592;7.180;2022-07-11T06:45:08;1.75;;;0.60;;
37955;SDS011;23776;51.592;7.180;2022-07-11T06:47:34;2.78;;;0.70;;
37955;SDS011;23776;51.592;7.180;2022-07-11T06:50:00;1.55;;;0.70;;
37955;SDS011;23776;51.592;7.180;2022-07-11T06:52:25;2.15;;;0.95;;
37955;SDS011;23776;51.592;7.180;2022-07-11T06:54:51;1.83;;;0.70;;
37955;SDS011;23776;51.592;7.180;2022-07-11T06:57:17;1.77;;;0.65;;
37955;SDS011;23776;51.592;7.180;2022-07-11T06:59:42;0.75;;;0.55;;
37955;SDS011;23776;51.592;7.180;2022-07-11T07:02:08;0.93;;;0.60;;
37955;SDS011;23776;51.592;7.180;2022-07-11T07:04:33;1.27;;;0.73;;
37955;SDS011;23776;51.592;7.180;2022-07-11T07:06:59;3.63;;;0.90;;
37955;SDS011;23776;51.592;7.180;2022-07-11T07:09:25;3.17;;;1.20;;
37955;SDS011;23776;51.592;7.180;2022-07-11T07:11:51;1.30;;;0.90;;
37955;SDS011;23776;51.592;7.180;2022-07-11T07:14:17;2.05;;;1.05;;
37955;SDS011;23776;51.592;7.180;2022-07-11T07:16:43;1.83;;;1.08;;
37955;SDS011;23776;51.592;7.180;2022-07-11T07:19:08;3.00;;;1.05;;
37955;SDS011;23776;51.592;7.180;2022-07-11T07:21:34;2.45;;;1.92;;
37955;SDS011;23776;51.592;7.180;2022-07-11T07:23:59;3.70;;;1.00;;
37955;SDS011;23776;51.592;7.180;2022-07-11T07:26:25;1.77;;;1.08;;
37955;SDS011;23776;51.592;7.180;2022-07-11T07:28:50;2.55;;;1.15;;
37955;SDS011;23776;51.592;7.180;2022-07-11T07:31:16;4.05;;;1.30;;
37955;SDS011;23776;51.592;7.180;2022-07-11T07:33:42;2.83;;;1.25;;
37955;SDS011;23776;51.592;7.180;2022-07-11T07:36:07;2.28;;;1.00;;
37955;SDS011;23776;51.592;7.180;2022-07-11T07:38:33;1.77;;;1.27;;
37955;SDS011;23776;51.592;7.180;2022-07-11T07:40:58;1.50;;;0.88;;
37955;SDS011;23776;51.592;7.180;2022-07-11T07:43:24;3.60;;;1.50;;
37955;SDS011;23776;51.592;7.180;2022-07-11T07:45:49;1.98;;;1.10;;
37955;SDS011;23776;51.592;7.180;2022-07-11T07:48:15;2.85;;;1.38;;
37955;SDS011;23776;51.592;7.180;2022-07-11T07:50:40;2.20;;;1.35;;
37955;SDS011;23776;51.592;7.180;2022-07-11T07:53:07;3.28;;;1.25;;
37955;SDS011;23776;51.592;7.180;2022-07-11T07:55:33;2.10;;;1.10;;
37955;SDS011;23776;51.592;7.180;2022-07-11T07:57:58;3.50;;;1.52;;
37955;SDS011;23776;51.592;7.180;2022-07-11T08:00:24;2.97;;;1.38;;
37955;SDS011;23776;51.592;7.180;2022-07-11T08:03:08;1.70;;;1.40;;
37955;SDS011;23776;51.592;7.180;2022-07-11T08:05:34;2.05;;;1.35;;
37955;SDS011;23776;51.592;7.180;2022-07-11T08:08:00;1.40;;;1.27;;
37955;SDS011;23776;51.592;7.180;2022-07-11T08:10:26;3.92;;;1.60;;
37955;SDS011;23776;51.592;7.180;2022-07-11T08:12:51;3.15;;;2.15;;
37955;SDS011;23776;51.592;7.180;2022-07-11T08:15:17;2.67;;;1.63;;
37955;SDS011;23776;51.592;7.180;2022-07-11T08:17:43;3.58;;;2.22;;
37955;SDS011;23776;51.592;7.180;2022-07-11T08:20:08;3.40;;;2.65;;
37955;SDS011;23776;51.592;7.180;2022-07-11T08:22:34;3.53;;;2.95;;
37955;SDS011;23776;51.592;7.180;2022-07-11T08:25:00;8.35;;;3.28;;
37955;SDS011;23776;51.592;7.180;2022-07-11T08:27:25;6.32;;;2.70;;
37955;SDS011;23776;51.592;7.180;2022-07-11T08:29:51;5.57;;;2.90;;
37955;SDS011;23776;51.592;7.180;2022-07-11T08:32:17;4.15;;;2.25;;
37955;SDS011;23776;51.592;7.180;2022-07-11T08:34:42;4.28;;;1.83;;
37955;SDS011;23776;51.592;7.180;2022-07-11T08:37:10;2.88;;;1.42;;
37955;SDS011;23776;51.592;7.180;2022-07-11T08:39:36;6.20;;;1.60;;
37955;SDS011;23776;51.592;7.180;2022-07-11T08:42:01;2.53;;;1.10;;
37955;SDS011;23776;51.592;7.180;2022-07-11T08:44:27;5.10;;;1.45;;
37955;SDS011;23776;51.592;7.180;2022-07-11T08:46:53;3.92;;;1.30;;
37955;SDS011;23776;51.592;7.180;2022-07-11T08:49:19;3.85;;;1.20;;
37955;SDS011;23776;51.592;7.180;2022-07-11T08:51:46;1.83;;;1.00;;
37955;SDS011;23776;51.592;7.180;2022-07-11T08:54:12;1.73;;;1.27;;
37955;SDS011;23776;51.592;7.180;2022-07-11T08:56:38;1.75;;;1.20;;
37955;SDS011;23776;51.592;7.180;2022-07-11T08:59:04;3.53;;;0.90;;
37955;SDS011;23776;51.592;7.180;2022-07-11T09:01:30;1.45;;;1.00;;
37955;SDS011;23776;51.592;7.180;2022-07-11T09:03:58;0.77;;;0.60;;
37955;SDS011;23776;51.592;7.180;2022-07-11T09:06:25;0.93;;;0.73;;
37955;SDS011;23776;51.592;7.180;2022-07-11T09:08:51;1.13;;;0.65;;
37955;SDS011;23776;51.592;7.180;2022-07-11T09:11:21;1.63;;;0.68;;
37955;SDS011;23776;51.592;7.180;2022-07-11T09:13:46;1.88;;;0.73;;
37955;SDS011;23776;51.592;7.180;2022-07-11T09:16:12;2.75;;;0.88;;
37955;SDS011;23776;51.592;7.180;2022-07-11T09:18:38;1.50;;;0.90;;
37955;SDS011;23776;51.592;7.180;2022-07-11T09:21:08;0.75;;;0.55;;
37955;SDS011;23776;51.592;7.180;2022-07-11T09:23:54;2.05;;;1.05;;
37955;SDS011;23776;51.592;7.180;2022-07-11T09:26:40;2.95;;;0.70;;
37955;SDS011;23776;51.592;7.180;2022-07-11T09:29:11;0.95;;;0.60;;
37955;SDS011;23776;51.592;7.180;2022-07-11T09:31:39;3.55;;;0.55;;
37955;SDS011;23776;51.592;7.180;2022-07-11T09:39:07;0.83;;;0.43;;
37955;SDS011;23776;51.592;7.180;2022-07-11T09:41:36;1.33;;;1.10;;
37955;SDS011;23776;51.592;7.180;2022-07-11T09:44:12;1.23;;;0.70;;
37955;SDS011;23776;51.592;7.180;2022-07-11T09:46:44;0.82;;;0.70;;
37955;SDS011;23776;51.592;7.180;2022-07-11T09:49:11;1.65;;;0.75;;
37955;SDS011;23776;51.592;7.180;2022-07-11T09:51:37;0.80;;;0.80;;
37955;SDS011;23776;51.592;7.180;2022-07-11T09:54:04;1.55;;;1.45;;
37955;SDS011;23776;51.592;7.180;2022-07-11T09:56:41;2.42;;;1.60;;
37955;SDS011;23776;51.592;7.180;2022-07-11T09:59:09;2.50;;;2.13;;
37955;SDS011;23776;51.592;7.180;2022-07-11T10:01:36;2.92;;;1.88;;
37955;SDS011;23776;51.592;7.180;2022-07-11T10:04:04;2.53;;;1.92;;
37955;SDS011;23776;51.592;7.180;2022-07-11T10:06:30;1.83;;;1.30;;
37955;SDS011;23776;51.592;7.180;2022-07-11T10:08:56;1.67;;;1.10;;
37955;SDS011;23776;51.592;7.180;2022-07-11T10:11:22;1.05;;;0.85;;
37955;SDS011;23776;51.592;7.180;2022-07-11T10:13:48;0.73;;;0.68;;
37955;SDS011;23776;51.592;7.180;2022-07-11T10:19:12;0.75;;;0.55;;
37955;SDS011;23776;51.592;7.180;2022-07-11T10:24:47;0.40;;;0.30;;
37955;SDS011;23776;51.592;7.180;2022-07-11T10:29:50;0.35;;;0.30;;
37955;SDS011;23776;51.592;7.180;2022-07-11T10:32:16;0.93;;;0.63;;
37955;SDS011;23776;51.592;7.180;2022-07-11T10:34:43;3.28;;;0.98;;
37955;SDS011;23776;51.592;7.180;2022-07-11T10:37:09;1.63;;;0.88;;
37955;SDS011;23776;51.592;7.180;2022-07-11T10:39:37;1.20;;;0.77;;
37955;SDS011;23776;51.592;7.180;2022-07-11T10:42:03;0.80;;;0.77;;
37955;SDS011;23776;51.592;7.180;2022-07-11T10:44:50;1.58;;;1.10;;
37955;SDS011;23776;51.592;7.180;2022-07-11T10:47:38;1.48;;;0.52;;
37955;SDS011;23776;51.592;7.180;2022-07-11T10:50:25;0.95;;;0.73;;
37955;SDS011;23776;51.592;7.180;2022-07-11T10:52:58;0.93;;;0.40;;
37955;SDS011;23776;51.592;7.180;2022-07-11T10:55:34;0.90;;;0.60;;
37955;SDS011;23776;51.592;7.180;2022-07-11T11:03:41;0.73;;;0.65;;
37955;SDS011;23776;51.592;7.180;2022-07-11T11:06:10;0.50;;;0.40;;
37955;SDS011;23776;51.592;7.180;2022-07-11T11:13:46;0.52;;;0.52;;
37955;SDS011;23776;51.592;7.180;2022-07-11T11:16:32;2.47;;;0.68;;
37955;SDS011;23776;51.592;7.180;2022-07-11T11:18:57;1.92;;;0.50;;
37955;SDS011;23776;51.592;7.180;2022-07-11T11:21:23;2.20;;;0.70;;
37955;SDS011;23776;51.592;7.180;2022-07-11T11:26:41;0.73;;;0.50;;
37955;SDS011;23776;51.592;7.180;2022-07-11T11:29:09;1.25;;;0.40;;
37955;SDS011;23776;51.592;7.180;2022-07-11T11:31:35;0.45;;;0.45;;
37955;SDS011;23776;51.592;7.180;2022-07-11T11:34:01;0.70;;;0.70;;
37955;SDS011;23776;51.592;7.180;2022-07-11T11:36:28;1.83;;;0.70;;
37955;SDS011;23776;51.592;7.180;2022-07-11T11:38:55;0.95;;;0.60;;
37955;SDS011;23776;51.592;7.180;2022-07-11T11:41:22;0.70;;;0.50;;
37955;SDS011;23776;51.592;7.180;2022-07-11T11:43:50;1.05;;;0.45;;
37955;SDS011;23776;51.592;7.180;2022-07-11T11:46:16;6.47;;;1.27;;
37955;SDS011;23776;51.592;7.180;2022-07-11T11:48:42;0.60;;;0.60;;
37955;SDS011;23776;51.592;7.180;2022-07-11T11:51:14;0.80;;;0.60;;
37955;SDS011;23776;51.592;7.180;2022-07-11T11:53:42;1.52;;;0.75;;
37955;SDS011;23776;51.592;7.180;2022-07-11T11:58:46;0.88;;;0.88;;
37955;SDS011;23776;51.592;7.180;2022-07-11T12:01:13;1.17;;;0.80;;
37955;SDS011;23776;51.592;7.180;2022-07-11T12:03:54;1.13;;;1.00;;
37955;SDS011;23776;51.592;7.180;2022-07-11T12:06:30;1.58;;;1.20;;
37955;SDS011;23776;51.592;7.180;2022-07-11T12:09:16;1.95;;;0.80;;
37955;SDS011;23776;51.592;7.180;2022-07-11T12:15:21;0.80;;;0.80;;
37955;SDS011;23776;51.592;7.180;2022-07-11T12:17:53;2.77;;;1.00;;
37955;SDS011;23776;51.592;7.180;2022-07-11T12:20:40;1.05;;;0.65;;
37955;SDS011;23776;51.592;7.180;2022-07-11T12:23:08;6.43;;;1.27;;
37955;SDS011;23776;51.592;7.180;2022-07-11T12:25:35;5.28;;;1.15;;
37955;SDS011;23776;51.592;7.180;2022-07-11T12:28:01;3.63;;;0.90;;
37955;SDS011;23776;51.592;7.180;2022-07-11T12:30:27;2.25;;;0.95;;
37955;SDS011;23776;51.592;7.180;2022-07-11T12:33:05;2.78;;;0.80;;
37955;SDS011;23776;51.592;7.180;2022-07-11T12:35:32;1.25;;;0.65;;
37955;SDS011;23776;51.592;7.180;2022-07-11T12:37:58;1.27;;;0.75;;
37955;SDS011;23776;51.592;7.180;2022-07-11T12:40:24;0.88;;;0.70;;
37955;SDS011;23776;51.592;7.180;2022-07-11T12:42:49;3.83;;;0.70;;
37955;SDS011;23776;51.592;7.180;2022-07-11T12:45:15;1.50;;;0.77;;
37955;SDS011;23776;51.592;7.180;2022-07-11T12:47:48;0.57;;;0.50;;
37955;SDS011;23776;51.592;7.180;2022-07-11T12:50:23;2.00;;;0.93;;
37955;SDS011;23776;51.592;7.180;2022-07-11T12:52:53;1.05;;;0.40;;
37955;SDS011;23776;51.592;7.180;2022-07-11T12:55:20;0.60;;;0.55;;
37955;SDS011;23776;51.592;7.180;2022-07-11T13:00:28;1.77;;;0.98;;
37955;SDS011;23776;51.592;7.180;2022-07-11T13:02:54;0.82;;;0.63;;
37955;SDS011;23776;51.592;7.180;2022-07-11T13:05:19;1.20;;;0.50;;
37955;SDS011;23776;51.592;7.180;2022-07-11T13:07:45;0.70;;;0.45;;
37955;SDS011;23776;51.592;7.180;2022-07-11T13:10:30;0.75;;;0.57;;
37955;SDS011;23776;51.592;7.180;2022-07-11T13:13:15;0.50;;;0.50;;
37955;SDS011;23776;51.592;7.180;2022-07-11T13:15:42;1.45;;;0.65;;
37955;SDS011;23776;51.592;7.180;2022-07-11T13:18:08;0.75;;;0.65;;
37955;SDS011;23776;51.592;7.180;2022-07-11T13:20:35;0.70;;;0.40;;
37955;SDS011;23776;51.592;7.180;2022-07-11T13:23:01;0.60;;;0.60;;
37955;SDS011;23776;51.592;7.180;2022-07-11T13:25:27;0.88;;;0.60;;
37955;SDS011;23776;51.592;7.180;2022-07-11T13:27:54;0.70;;;0.70;;
37955;SDS011;23776;51.592;7.180;2022-07-11T13:30:20;2.88;;;1.00;;
37955;SDS011;23776;51.592;7.180;2022-07-11T13:32:50;1.25;;;0.90;;
37955;SDS011;23776;51.592;7.180;2022-07-11T13:35:16;0.60;;;0.60;;
37955;SDS011;23776;51.592;7.180;2022-07-11T13:37:42;1.42;;;0.80;;
37955;SDS011;23776;51.592;7.180;2022-07-11T13:40:10;1.17;;;0.82;;
37955;SDS011;23776;51.592;7.180;2022-07-11T13:42:39;0.65;;;0.65;;
37955;SDS011;23776;51.592;7.180;2022-07-11T13:45:06;1.55;;;0.60;;
37955;SDS011;23776;51.592;7.180;2022-07-11T13:47:32;1.40;;;0.55;;
37955;SDS011;23776;51.592;7.180;2022-07-11T13:49:59;1.08;;;0.60;;
37955;SDS011;23776;51.592;7.180;2022-07-11T13:52:25;1.15;;;0.57;;
37955;SDS011;23776;51.592;7.180;2022-07-11T13:54:50;1.40;;;0.68;;
37955;SDS011;23776;51.592;7.180;2022-07-11T13:57:16;1.05;;;0.70;;
37955;SDS011;23776;51.592;7.180;2022-07-11T13:59:42;0.70;;;0.55;;
37955;SDS011;23776;51.592;7.180;2022-07-11T14:02:07;0.88;;;0.50;;
37955;SDS011;23776;51.592;7.180;2022-07-11T14:04:33;1.33;;;0.82;;
37955;SDS011;23776;51.592;7.180;2022-07-11T14:06:59;0.75;;;0.50;;
37955;SDS011;23776;51.592;7.180;2022-07-11T14:09:25;0.90;;;0.40;;
37955;SDS011;23776;51.592;7.180;2022-07-11T14:11:52;1.42;;;0.60;;
37955;SDS011;23776;51.592;7.180;2022-07-11T14:14:18;0.77;;;0.65;;
37955;SDS011;23776;51.592;7.180;2022-07-11T14:16:44;2.15;;;0.68;;
37955;SDS011;23776;51.592;7.180;2022-07-11T14:19:10;0.70;;;0.50;;
37955;SDS011;23776;51.592;7.180;2022-07-11T14:21:36;0.63;;;0.55;;
37955;SDS011;23776;51.592;7.180;2022-07-11T14:24:03;0.55;;;0.50;;
37955;SDS011;23776;51.592;7.180;2022-07-11T14:26:29;0.90;;;0.60;;
37955;SDS011;23776;51.592;7.180;2022-07-11T14:28:55;0.60;;;0.57;;
37955;SDS011;23776;51.592;7.180;2022-07-11T14:31:21;1.45;;;0.50;;
37955;SDS011;23776;51.592;7.180;2022-07-11T14:33:53;0.30;;;0.30;;
37955;SDS011;23776;51.592;7.180;2022-07-11T14:36:19;1.25;;;0.60;;
37955;SDS011;23776;51.592;7.180;2022-07-11T14:38:46;2.78;;;0.38;;
37955;SDS011;23776;51.592;7.180;2022-07-11T14:41:12;0.40;;;0.40;;
37955;SDS011;23776;51.592;7.180;2022-07-11T14:43:39;1.02;;;0.65;;
37955;SDS011;23776;51.592;7.180;2022-07-11T14:46:05;0.95;;;0.40;;
37955;SDS011;23776;51.592;7.180;2022-07-11T14:48:31;1.63;;;0.77;;
37955;SDS011;23776;51.592;7.180;2022-07-11T14:50:57;0.50;;;0.30;;
37955;SDS011;23776;51.592;7.180;2022-07-11T14:53:22;0.90;;;0.50;;
37955;SDS011;23776;51.592;7.180;2022-07-11T14:55:50;1.13;;;0.57;;
37955;SDS011;23776;51.592;7.180;2022-07-11T14:58:16;1.05;;;0.40;;
37955;SDS011;23776;51.592;7.180;2022-07-11T15:00:42;0.55;;;0.55;;
37955;SDS011;23776;51.592;7.180;2022-07-11T15:03:09;0.85;;;0.68;;
37955;SDS011;23776;51.592;7.180;2022-07-11T15:06:01;0.85;;;0.57;;
37955;SDS011;23776;51.592;7.180;2022-07-11T15:08:27;0.40;;;0.38;;
37955;SDS011;23776;51.592;7.180;2022-07-11T15:11:11;1.23;;;0.65;;
37955;SDS011;23776;51.592;7.180;2022-07-11T15:13:55;0.77;;;0.63;;
37955;SDS011;23776;51.592;7.180;2022-07-11T15:16:22;0.65;;;0.65;;
37955;SDS011;23776;51.592;7.180;2022-07-11T15:18:47;0.88;;;0.73;;
37955;SDS011;23776;51.592;7.180;2022-07-11T15:21:13;2.05;;;0.70;;
37955;SDS011;23776;51.592;7.180;2022-07-11T15:23:39;0.50;;;0.50;;